sensor_id;sensor_type;location;lat;lon;timestamp;P1;durP1;ratioP1;P2;durP2;ratioP2
21432;SDS011;18592;49.708;10.900;2024-03-06T00:00:44;4.25;;;3.83;;
21432;SDS011;18592;49.708;10.900;2024-03-06T00:02:51;4.38;;;3.63;;
21432;SDS011;18592;49.708;10.900;2024-03-06T00:04:52;3.97;;;3.60;;
21432;SDS011;18592;49.708;10.900;2024-03-06T00:06:56;4.05;;;3.58;;
21432;SDS011;18592;49.708;10.900;2024-03-06T00:08:57;4.55;;;4.10;;
21432;SDS011;18592;49.708;10.900;2024-03-06T00:10:59;4.10;;;3.47;;
21432;SDS011;18592;49.708;10.900;2024-03-06T00:13:01;3.65;;;3.35;;
21432;SDS011;18592;49.708;10.900;2024-03-06T00:15:02;4.10;;;3.55;;
21432;SDS011;18592;49.708;10.900;2024-03-06T00:17:03;3.92;;;3.45;;
21432;SDS011;18592;49.708;10.900;2024-03-06T00:19:07;4.30;;;3.72;;
21432;SDS011;18592;49.708;10.900;2024-03-06T00:21:08;5.15;;;4.18;;
21432;SDS011;18592;49.708;10.900;2024-03-06T00:23:11;5.32;;;4.05;;
21432;SDS011;18592;49.708;10.900;2024-03-06T00:25:39;4.25;;;3.85;;
21432;SDS011;18592;49.708;10.900;2024-03-06T00:27:50;4.10;;;3.70;;
21432;SDS011;18592;49.708;10.900;2024-03-06T00:30:03;4.60;;;3.92;;
21432;SDS011;18592;49.708;10.900;2024-03-06T00:32:18;4.32;;;3.55;;
21432;SDS011;18592;49.708;10.900;2024-03-06T00:34:20;4.05;;;3.65;;
21432;SDS011;18592;49.708;10.900;2024-03-06T00:36:34;4.43;;;4.03;;
21432;SDS011;18592;49.708;10.900;2024-03-06T00:38:36;4.07;;;3.50;;
21432;SDS011;18592;49.708;10.900;2024-03-06T00:40:48;4.78;;;3.70;;
21432;SDS011;18592;49.708;10.900;2024-03-06T00:42:49;5.43;;;3.97;;
21432;SDS011;18592;49.708;10.900;2024-03-06T00:44:51;3.42;;;3.10;;
21432;SDS011;18592;49.708;10.900;2024-03-06T00:46:55;3.60;;;3.20;;
21432;SDS011;18592;49.708;10.900;2024-03-06T00:49:07;4.55;;;3.60;;
21432;SDS011;18592;49.708;10.900;2024-03-06T00:51:16;3.85;;;3.40;;
21432;SDS011;18592;49.708;10.900;2024-03-06T00:53:44;3.35;;;2.97;;
21432;SDS011;18592;49.708;10.900;2024-03-06T00:55:47;4.10;;;3.25;;
21432;SDS011;18592;49.708;10.900;2024-03-06T00:57:59;3.67;;;3.28;;
21432;SDS011;18592;49.708;10.900;2024-03-06T01:00:01;4.50;;;3.47;;
21432;SDS011;18592;49.708;10.900;2024-03-06T01:02:06;4.00;;;3.60;;
21432;SDS011;18592;49.708;10.900;2024-03-06T01:04:13;4.70;;;3.90;;
21432;SDS011;18592;49.708;10.900;2024-03-06T01:06:14;5.90;;;4.13;;
21432;SDS011;18592;49.708;10.900;2024-03-06T01:08:24;4.75;;;3.97;;
21432;SDS011;18592;49.708;10.900;2024-03-06T01:10:26;4.38;;;3.80;;
21432;SDS011;18592;49.708;10.900;2024-03-06T01:23:11;3.92;;;3.53;;
21432;SDS011;18592;49.708;10.900;2024-03-06T01:25:18;3.50;;;3.20;;
21432;SDS011;18592;49.708;10.900;2024-03-06T01:27:18;4.13;;;3.55;;
21432;SDS011;18592;49.708;10.900;2024-03-06T01:29:19;3.97;;;3.63;;
21432;SDS011;18592;49.708;10.900;2024-03-06T01:31:19;3.90;;;3.40;;
21432;SDS011;18592;49.708;10.900;2024-03-06T01:33:23;4.47;;;3.60;;
21432;SDS011;18592;49.708;10.900;2024-03-06T01:35:38;4.20;;;3.60;;
21432;SDS011;18592;49.708;10.900;2024-03-06T01:37:41;4.28;;;3.67;;
21432;SDS011;18592;49.708;10.900;2024-03-06T01:39:43;4.07;;;3.60;;
21432;SDS011;18592;49.708;10.900;2024-03-06T01:41:46;5.40;;;3.70;;
21432;SDS011;18592;49.708;10.900;2024-03-06T01:43:47;3.42;;;3.13;;
21432;SDS011;18592;49.708;10.900;2024-03-06T01:46:03;4.22;;;3.80;;
21432;SDS011;18592;49.708;10.900;2024-03-06T01:48:05;5.80;;;3.83;;
21432;SDS011;18592;49.708;10.900;2024-03-06T01:50:08;3.53;;;3.22;;
21432;SDS011;18592;49.708;10.900;2024-03-06T01:52:09;4.93;;;3.92;;
21432;SDS011;18592;49.708;10.900;2024-03-06T01:54:13;3.95;;;3.30;;
21432;SDS011;18592;49.708;10.900;2024-03-06T01:56:13;3.80;;;3.25;;
21432;SDS011;18592;49.708;10.900;2024-03-06T01:58:20;4.00;;;3.50;;
21432;SDS011;18592;49.708;10.900;2024-03-06T02:00:21;3.40;;;2.88;;
21432;SDS011;18592;49.708;10.900;2024-03-06T02:02:23;3.42;;;3.13;;
21432;SDS011;18592;49.708;10.900;2024-03-06T02:04:39;3.50;;;3.20;;
21432;SDS011;18592;49.708;10.900;2024-03-06T02:06:41;4.32;;;3.58;;
21432;SDS011;18592;49.708;10.900;2024-03-06T02:08:56;4.15;;;3.72;;
21432;SDS011;18592;49.708;10.900;2024-03-06T02:11:05;4.60;;;3.85;;
21432;SDS011;18592;49.708;10.900;2024-03-06T02:13:11;4.05;;;3.65;;
21432;SDS011;18592;49.708;10.900;2024-03-06T02:15:15;4.43;;;3.88;;
21432;SDS011;18592;49.708;10.900;2024-03-06T02:17:26;4.75;;;3.70;;
21432;SDS011;18592;49.708;10.900;2024-03-06T02:19:40;4.47;;;4.03;;
21432;SDS011;18592;49.708;10.900;2024-03-06T02:21:43;4.25;;;3.75;;
21432;SDS011;18592;49.708;10.900;2024-03-06T02:23:46;4.53;;;3.83;;
21432;SDS011;18592;49.708;10.900;2024-03-06T02:25:47;4.55;;;3.92;;
21432;SDS011;18592;49.708;10.900;2024-03-06T02:28:03;5.00;;;4.28;;
21432;SDS011;18592;49.708;10.900;2024-03-06T02:30:05;5.72;;;4.57;;
21432;SDS011;18592;49.708;10.900;2024-03-06T02:32:08;5.75;;;4.38;;
21432;SDS011;18592;49.708;10.900;2024-03-06T02:34:23;6.38;;;4.15;;
21432;SDS011;18592;49.708;10.900;2024-03-06T02:36:28;4.18;;;3.78;;
21432;SDS011;18592;49.708;10.900;2024-03-06T02:38:29;4.57;;;4.07;;
21432;SDS011;18592;49.708;10.900;2024-03-06T02:40:31;5.28;;;3.78;;
21432;SDS011;18592;49.708;10.900;2024-03-06T02:42:36;4.30;;;3.70;;
21432;SDS011;18592;49.708;10.900;2024-03-06T02:44:55;3.78;;;3.30;;
21432;SDS011;18592;49.708;10.900;2024-03-06T02:46:56;4.13;;;3.67;;
21432;SDS011;18592;49.708;10.900;2024-03-06T02:49:02;5.07;;;4.03;;
21432;SDS011;18592;49.708;10.900;2024-03-06T02:51:03;4.53;;;3.72;;
21432;SDS011;18592;49.708;10.900;2024-03-06T02:53:23;4.63;;;4.18;;
21432;SDS011;18592;49.708;10.900;2024-03-06T02:55:26;4.80;;;3.88;;
21432;SDS011;18592;49.708;10.900;2024-03-06T02:57:36;5.53;;;3.65;;
21432;SDS011;18592;49.708;10.900;2024-03-06T02:59:39;5.05;;;4.10;;
21432;SDS011;18592;49.708;10.900;2024-03-06T03:01:46;4.00;;;3.50;;
21432;SDS011;18592;49.708;10.900;2024-03-06T03:03:48;5.05;;;4.38;;
21432;SDS011;18592;49.708;10.900;2024-03-06T03:05:54;4.85;;;4.22;;
21432;SDS011;18592;49.708;10.900;2024-03-06T03:07:59;5.00;;;3.92;;
21432;SDS011;18592;49.708;10.900;2024-03-06T03:10:01;5.22;;;4.00;;
21432;SDS011;18592;49.708;10.900;2024-03-06T03:12:10;4.70;;;3.80;;
21432;SDS011;18592;49.708;10.900;2024-03-06T03:14:25;4.88;;;4.22;;
21432;SDS011;18592;49.708;10.900;2024-03-06T03:16:26;5.28;;;3.85;;
21432;SDS011;18592;49.708;10.900;2024-03-06T03:18:41;4.53;;;3.65;;
21432;SDS011;18592;49.708;10.900;2024-03-06T03:20:43;4.32;;;3.47;;
21432;SDS011;18592;49.708;10.900;2024-03-06T03:22:59;3.83;;;3.30;;
21432;SDS011;18592;49.708;10.900;2024-03-06T03:25:01;4.30;;;3.45;;
21432;SDS011;18592;49.708;10.900;2024-03-06T03:27:02;5.57;;;4.30;;
21432;SDS011;18592;49.708;10.900;2024-03-06T03:29:04;4.07;;;3.67;;
21432;SDS011;18592;49.708;10.900;2024-03-06T03:31:19;4.32;;;3.83;;
21432;SDS011;18592;49.708;10.900;2024-03-06T03:33:20;3.83;;;3.40;;
21432;SDS011;18592;49.708;10.900;2024-03-06T03:35:21;4.30;;;3.90;;
21432;SDS011;18592;49.708;10.900;2024-03-06T03:37:40;4.55;;;3.83;;
21432;SDS011;18592;49.708;10.900;2024-03-06T03:39:45;6.60;;;4.18;;
21432;SDS011;18592;49.708;10.900;2024-03-06T03:41:55;4.85;;;4.03;;
21432;SDS011;18592;49.708;10.900;2024-03-06T03:43:56;4.88;;;3.80;;
21432;SDS011;18592;49.708;10.900;2024-03-06T03:45:58;4.60;;;3.42;;
21432;SDS011;18592;49.708;10.900;2024-03-06T03:48:01;4.05;;;3.58;;
21432;SDS011;18592;49.708;10.900;2024-03-06T03:50:04;3.85;;;3.47;;
21432;SDS011;18592;49.708;10.900;2024-03-06T03:52:19;4.30;;;3.67;;
21432;SDS011;18592;49.708;10.900;2024-03-06T03:54:38;3.97;;;3.40;;
21432;SDS011;18592;49.708;10.900;2024-03-06T03:56:39;3.63;;;3.13;;
21432;SDS011;18592;49.708;10.900;2024-03-06T03:58:52;4.57;;;3.85;;
21432;SDS011;18592;49.708;10.900;2024-03-06T04:01:05;4.03;;;3.63;;
21432;SDS011;18592;49.708;10.900;2024-03-06T04:13:50;5.43;;;4.57;;
21432;SDS011;18592;49.708;10.900;2024-03-06T04:15:51;4.40;;;4.00;;
21432;SDS011;18592;49.708;10.900;2024-03-06T04:17:56;4.47;;;4.03;;
21432;SDS011;18592;49.708;10.900;2024-03-06T04:20:03;4.95;;;4.25;;
21432;SDS011;18592;49.708;10.900;2024-03-06T04:22:06;4.85;;;4.03;;
21432;SDS011;18592;49.708;10.900;2024-03-06T04:24:07;5.97;;;4.25;;
21432;SDS011;18592;49.708;10.900;2024-03-06T04:26:07;4.82;;;4.32;;
21432;SDS011;18592;49.708;10.900;2024-03-06T04:28:07;5.07;;;4.28;;
21432;SDS011;18592;49.708;10.900;2024-03-06T04:30:22;5.13;;;4.35;;
21432;SDS011;18592;49.708;10.900;2024-03-06T04:32:23;5.35;;;4.05;;
21432;SDS011;18592;49.708;10.900;2024-03-06T04:34:26;4.90;;;4.32;;
21432;SDS011;18592;49.708;10.900;2024-03-06T04:36:26;5.20;;;4.70;;
21432;SDS011;18592;49.708;10.900;2024-03-06T04:38:26;5.05;;;4.18;;
21432;SDS011;18592;49.708;10.900;2024-03-06T04:40:28;5.18;;;4.40;;
21432;SDS011;18592;49.708;10.900;2024-03-06T04:42:28;6.28;;;5.10;;
21432;SDS011;18592;49.708;10.900;2024-03-06T04:44:29;5.05;;;4.43;;
21432;SDS011;18592;49.708;10.900;2024-03-06T04:46:36;6.45;;;4.32;;
21432;SDS011;18592;49.708;10.900;2024-03-06T04:48:36;5.30;;;4.55;;
21432;SDS011;18592;49.708;10.900;2024-03-06T04:50:58;5.78;;;4.90;;
21432;SDS011;18592;49.708;10.900;2024-03-06T04:52:59;5.40;;;4.55;;
21432;SDS011;18592;49.708;10.900;2024-03-06T05:05:53;5.70;;;4.63;;
21432;SDS011;18592;49.708;10.900;2024-03-06T05:08:12;5.47;;;4.50;;
21432;SDS011;18592;49.708;10.900;2024-03-06T05:10:31;5.68;;;4.90;;
21432;SDS011;18592;49.708;10.900;2024-03-06T05:12:50;4.88;;;4.03;;
21432;SDS011;18592;49.708;10.900;2024-03-06T05:15:10;5.18;;;4.63;;
21432;SDS011;18592;49.708;10.900;2024-03-06T05:17:30;5.13;;;4.28;;
21432;SDS011;18592;49.708;10.900;2024-03-06T05:19:49;4.65;;;4.15;;
21432;SDS011;18592;49.708;10.900;2024-03-06T05:22:08;5.22;;;4.70;;
21432;SDS011;18592;49.708;10.900;2024-03-06T05:24:27;6.95;;;4.85;;
21432;SDS011;18592;49.708;10.900;2024-03-06T05:26:47;5.28;;;4.32;;
21432;SDS011;18592;49.708;10.900;2024-03-06T05:29:06;6.55;;;5.13;;
21432;SDS011;18592;49.708;10.900;2024-03-06T05:31:27;5.57;;;5.03;;
21432;SDS011;18592;49.708;10.900;2024-03-06T05:33:47;4.90;;;4.30;;
21432;SDS011;18592;49.708;10.900;2024-03-06T05:36:07;6.30;;;5.07;;
21432;SDS011;18592;49.708;10.900;2024-03-06T05:38:26;5.70;;;4.90;;
21432;SDS011;18592;49.708;10.900;2024-03-06T05:40:45;5.80;;;4.70;;
21432;SDS011;18592;49.708;10.900;2024-03-06T05:43:04;5.65;;;5.05;;
21432;SDS011;18592;49.708;10.900;2024-03-06T05:45:24;5.43;;;4.70;;
21432;SDS011;18592;49.708;10.900;2024-03-06T05:47:44;7.53;;;5.63;;
21432;SDS011;18592;49.708;10.900;2024-03-06T05:50:02;5.82;;;4.88;;
21432;SDS011;18592;49.708;10.900;2024-03-06T05:52:23;6.35;;;5.57;;
21432;SDS011;18592;49.708;10.900;2024-03-06T05:54:43;5.63;;;4.60;;
21432;SDS011;18592;49.708;10.900;2024-03-06T05:57:02;5.30;;;4.80;;
21432;SDS011;18592;49.708;10.900;2024-03-06T05:59:25;5.93;;;4.03;;
21432;SDS011;18592;49.708;10.900;2024-03-06T06:01:26;4.65;;;4.15;;
21432;SDS011;18592;49.708;10.900;2024-03-06T06:03:31;6.85;;;5.05;;
21432;SDS011;18592;49.708;10.900;2024-03-06T06:05:48;6.47;;;4.78;;
21432;SDS011;18592;49.708;10.900;2024-03-06T06:07:57;5.55;;;4.50;;
21432;SDS011;18592;49.708;10.900;2024-03-06T06:09:58;5.80;;;4.82;;
21432;SDS011;18592;49.708;10.900;2024-03-06T06:11:58;5.85;;;4.82;;
21432;SDS011;18592;49.708;10.900;2024-03-06T06:13:59;6.45;;;5.35;;
21432;SDS011;18592;49.708;10.900;2024-03-06T06:16:00;6.40;;;5.50;;
21432;SDS011;18592;49.708;10.900;2024-03-06T06:18:18;6.85;;;4.60;;
21432;SDS011;18592;49.708;10.900;2024-03-06T06:20:20;4.20;;;3.65;;
21432;SDS011;18592;49.708;10.900;2024-03-06T06:22:30;4.60;;;3.47;;
21432;SDS011;18592;49.708;10.900;2024-03-06T06:24:51;4.20;;;3.35;;
21432;SDS011;18592;49.708;10.900;2024-03-06T06:26:51;4.45;;;3.97;;
21432;SDS011;18592;49.708;10.900;2024-03-06T06:28:53;4.60;;;3.20;;
21432;SDS011;18592;49.708;10.900;2024-03-06T06:30:53;4.05;;;3.38;;
21432;SDS011;18592;49.708;10.900;2024-03-06T06:32:54;5.43;;;4.40;;
21432;SDS011;18592;49.708;10.900;2024-03-06T06:34:54;7.10;;;5.13;;
21432;SDS011;18592;49.708;10.900;2024-03-06T06:36:56;6.05;;;4.80;;
21432;SDS011;18592;49.708;10.900;2024-03-06T06:39:11;6.28;;;5.00;;
21432;SDS011;18592;49.708;10.900;2024-03-06T06:41:13;8.18;;;6.82;;
21432;SDS011;18592;49.708;10.900;2024-03-06T06:43:23;9.43;;;7.18;;
21432;SDS011;18592;49.708;10.900;2024-03-06T06:45:24;8.48;;;6.25;;
21432;SDS011;18592;49.708;10.900;2024-03-06T06:47:24;5.70;;;4.63;;
21432;SDS011;18592;49.708;10.900;2024-03-06T06:49:27;6.07;;;4.63;;
21432;SDS011;18592;49.708;10.900;2024-03-06T06:51:29;5.95;;;4.60;;
21432;SDS011;18592;49.708;10.900;2024-03-06T06:53:30;5.50;;;4.07;;
21432;SDS011;18592;49.708;10.900;2024-03-06T06:55:31;4.75;;;3.70;;
21432;SDS011;18592;49.708;10.900;2024-03-06T06:57:31;7.57;;;4.70;;
21432;SDS011;18592;49.708;10.900;2024-03-06T06:59:34;7.82;;;5.03;;
21432;SDS011;18592;49.708;10.900;2024-03-06T07:01:34;5.82;;;5.00;;
21432;SDS011;18592;49.708;10.900;2024-03-06T07:03:35;8.82;;;6.65;;
21432;SDS011;18592;49.708;10.900;2024-03-06T07:05:35;11.30;;;8.48;;
21432;SDS011;18592;49.708;10.900;2024-03-06T07:07:40;9.32;;;7.25;;
21432;SDS011;18592;49.708;10.900;2024-03-06T07:09:50;10.25;;;7.30;;
21432;SDS011;18592;49.708;10.900;2024-03-06T07:12:05;14.90;;;9.32;;
21432;SDS011;18592;49.708;10.900;2024-03-06T07:14:12;11.25;;;8.30;;
21432;SDS011;18592;49.708;10.900;2024-03-06T07:16:13;12.88;;;8.07;;
21432;SDS011;18592;49.708;10.900;2024-03-06T07:18:16;10.80;;;7.53;;
21432;SDS011;18592;49.708;10.900;2024-03-06T07:20:16;10.45;;;7.60;;
21432;SDS011;18592;49.708;10.900;2024-03-06T07:22:32;10.40;;;6.78;;
21432;SDS011;18592;49.708;10.900;2024-03-06T07:24:34;9.18;;;6.10;;
21432;SDS011;18592;49.708;10.900;2024-03-06T07:26:49;8.80;;;6.57;;
21432;SDS011;18592;49.708;10.900;2024-03-06T07:28:55;12.02;;;6.50;;
21432;SDS011;18592;49.708;10.900;2024-03-06T07:30:57;9.43;;;5.93;;
21432;SDS011;18592;49.708;10.900;2024-03-06T07:33:01;9.88;;;6.40;;
21432;SDS011;18592;49.708;10.900;2024-03-06T07:35:28;9.93;;;6.85;;
21432;SDS011;18592;49.708;10.900;2024-03-06T07:37:28;12.27;;;7.10;;
21432;SDS011;18592;49.708;10.900;2024-03-06T07:39:28;11.82;;;7.22;;
21432;SDS011;18592;49.708;10.900;2024-03-06T07:41:31;12.40;;;8.15;;
21432;SDS011;18592;49.708;10.900;2024-03-06T07:43:35;12.93;;;9.10;;
21432;SDS011;18592;49.708;10.900;2024-03-06T07:45:35;10.20;;;7.32;;
21432;SDS011;18592;49.708;10.900;2024-03-06T07:47:37;10.48;;;6.95;;
21432;SDS011;18592;49.708;10.900;2024-03-06T07:49:50;8.88;;;5.40;;
21432;SDS011;18592;49.708;10.900;2024-03-06T07:52:04;11.30;;;7.07;;
21432;SDS011;18592;49.708;10.900;2024-03-06T07:54:06;8.70;;;6.30;;
21432;SDS011;18592;49.708;10.900;2024-03-06T07:56:09;9.40;;;6.15;;
21432;SDS011;18592;49.708;10.900;2024-03-06T07:58:11;8.55;;;6.22;;
21432;SDS011;18592;49.708;10.900;2024-03-06T08:00:13;7.38;;;4.70;;
21432;SDS011;18592;49.708;10.900;2024-03-06T08:02:21;9.45;;;5.57;;
21432;SDS011;18592;49.708;10.900;2024-03-06T08:04:22;7.65;;;5.40;;
21432;SDS011;18592;49.708;10.900;2024-03-06T08:06:25;10.07;;;5.63;;
21432;SDS011;18592;49.708;10.900;2024-03-06T08:08:33;7.53;;;5.00;;
21432;SDS011;18592;49.708;10.900;2024-03-06T08:10:52;7.40;;;4.78;;
21432;SDS011;18592;49.708;10.900;2024-03-06T08:23:33;9.95;;;6.72;;
21432;SDS011;18592;49.708;10.900;2024-03-06T08:25:34;10.23;;;6.85;;
21432;SDS011;18592;49.708;10.900;2024-03-06T08:28:06;8.43;;;6.35;;
21432;SDS011;18592;49.708;10.900;2024-03-06T08:30:24;8.13;;;6.25;;
21432;SDS011;18592;49.708;10.900;2024-03-06T08:32:50;7.40;;;5.13;;
21432;SDS011;18592;49.708;10.900;2024-03-06T08:35:08;6.32;;;4.63;;
21432;SDS011;18592;49.708;10.900;2024-03-06T08:37:11;7.20;;;5.15;;
21432;SDS011;18592;49.708;10.900;2024-03-06T08:39:13;7.72;;;5.72;;
21432;SDS011;18592;49.708;10.900;2024-03-06T08:41:36;6.13;;;4.85;;
21432;SDS011;18592;49.708;10.900;2024-03-06T08:43:38;7.10;;;5.18;;
21432;SDS011;18592;49.708;10.900;2024-03-06T08:45:51;11.10;;;5.93;;
21432;SDS011;18592;49.708;10.900;2024-03-06T08:48:11;8.27;;;5.55;;
21432;SDS011;18592;49.708;10.900;2024-03-06T08:50:38;6.95;;;4.47;;
21432;SDS011;18592;49.708;10.900;2024-03-06T08:53:19;5.75;;;4.20;;
21432;SDS011;18592;49.708;10.900;2024-03-06T08:55:24;6.95;;;4.47;;
21432;SDS011;18592;49.708;10.900;2024-03-06T08:57:42;7.55;;;4.95;;
21432;SDS011;18592;49.708;10.900;2024-03-06T09:00:12;7.85;;;4.97;;
21432;SDS011;18592;49.708;10.900;2024-03-06T09:02:18;7.60;;;5.30;;
21432;SDS011;18592;49.708;10.900;2024-03-06T09:15:27;11.10;;;7.20;;
21432;SDS011;18592;49.708;10.900;2024-03-06T09:17:32;12.15;;;7.25;;
21432;SDS011;18592;49.708;10.900;2024-03-06T09:19:39;14.65;;;9.02;;
21432;SDS011;18592;49.708;10.900;2024-03-06T09:21:39;14.68;;;9.98;;
21432;SDS011;18592;49.708;10.900;2024-03-06T09:23:39;17.88;;;11.23;;
21432;SDS011;18592;49.708;10.900;2024-03-06T09:25:40;15.18;;;10.18;;
21432;SDS011;18592;49.708;10.900;2024-03-06T09:27:40;15.10;;;9.23;;
21432;SDS011;18592;49.708;10.900;2024-03-06T09:29:44;14.25;;;8.50;;
21432;SDS011;18592;49.708;10.900;2024-03-06T09:45:05;9.68;;;6.68;;
21432;SDS011;18592;49.708;10.900;2024-03-06T09:47:51;10.95;;;7.90;;
21432;SDS011;18592;49.708;10.900;2024-03-06T09:49:54;11.10;;;8.02;;
21432;SDS011;18592;49.708;10.900;2024-03-06T09:51:55;11.23;;;7.40;;
21432;SDS011;18592;49.708;10.900;2024-03-06T09:54:07;11.10;;;7.63;;
21432;SDS011;18592;49.708;10.900;2024-03-06T09:56:07;11.93;;;7.70;;
21432;SDS011;18592;49.708;10.900;2024-03-06T09:58:13;9.50;;;6.68;;
21432;SDS011;18592;49.708;10.900;2024-03-06T10:00:16;10.18;;;6.38;;
21432;SDS011;18592;49.708;10.900;2024-03-06T10:03:03;8.45;;;6.13;;
21432;SDS011;18592;49.708;10.900;2024-03-06T10:05:36;8.90;;;6.13;;
21432;SDS011;18592;49.708;10.900;2024-03-06T10:08:28;8.85;;;6.05;;
21432;SDS011;18592;49.708;10.900;2024-03-06T10:10:36;10.82;;;7.75;;
21432;SDS011;18592;49.708;10.900;2024-03-06T10:12:49;9.50;;;6.88;;
21432;SDS011;18592;49.708;10.900;2024-03-06T10:15:04;10.90;;;6.45;;
21432;SDS011;18592;49.708;10.900;2024-03-06T10:17:05;8.85;;;5.43;;
21432;SDS011;18592;49.708;10.900;2024-03-06T10:19:15;13.57;;;7.30;;
21432;SDS011;18592;49.708;10.900;2024-03-06T10:21:29;13.90;;;7.45;;
21432;SDS011;18592;49.708;10.900;2024-03-06T10:23:50;10.95;;;6.50;;
21432;SDS011;18592;49.708;10.900;2024-03-06T10:25:57;10.25;;;6.22;;
21432;SDS011;18592;49.708;10.900;2024-03-06T10:28:07;11.63;;;6.00;;
21432;SDS011;18592;49.708;10.900;2024-03-06T10:30:09;10.40;;;5.63;;
21432;SDS011;18592;49.708;10.900;2024-03-06T10:32:16;11.00;;;5.50;;
21432;SDS011;18592;49.708;10.900;2024-03-06T10:34:38;13.55;;;4.97;;
21432;SDS011;18592;49.708;10.900;2024-03-06T10:36:51;11.15;;;5.10;;
21432;SDS011;18592;49.708;10.900;2024-03-06T10:38:54;12.32;;;5.68;;
21432;SDS011;18592;49.708;10.900;2024-03-06T10:40:58;10.15;;;5.65;;
21432;SDS011;18592;49.708;10.900;2024-03-06T10:42:59;10.07;;;5.00;;
21432;SDS011;18592;49.708;10.900;2024-03-06T10:45:01;9.43;;;4.85;;
21432;SDS011;18592;49.708;10.900;2024-03-06T10:47:08;11.95;;;5.50;;
21432;SDS011;18592;49.708;10.900;2024-03-06T10:49:12;11.55;;;6.72;;
21432;SDS011;18592;49.708;10.900;2024-03-06T10:51:12;11.38;;;6.60;;
21432;SDS011;18592;49.708;10.900;2024-03-06T10:53:15;10.90;;;6.10;;
21432;SDS011;18592;49.708;10.900;2024-03-06T10:55:16;11.27;;;6.35;;
21432;SDS011;18592;49.708;10.900;2024-03-06T10:57:24;10.82;;;5.25;;
21432;SDS011;18592;49.708;10.900;2024-03-06T10:59:26;11.13;;;6.20;;
21432;SDS011;18592;49.708;10.900;2024-03-06T11:01:41;11.48;;;7.72;;
21432;SDS011;18592;49.708;10.900;2024-03-06T11:03:51;10.75;;;6.75;;
21432;SDS011;18592;49.708;10.900;2024-03-06T11:05:52;9.35;;;5.65;;
21432;SDS011;18592;49.708;10.900;2024-03-06T11:08:09;7.85;;;5.05;;
21432;SDS011;18592;49.708;10.900;2024-03-06T11:10:32;8.15;;;5.82;;
21432;SDS011;18592;49.708;10.900;2024-03-06T11:12:44;7.40;;;5.43;;
21432;SDS011;18592;49.708;10.900;2024-03-06T11:14:46;10.52;;;6.75;;
21432;SDS011;18592;49.708;10.900;2024-03-06T11:17:08;11.52;;;6.65;;
21432;SDS011;18592;49.708;10.900;2024-03-06T11:19:09;13.65;;;6.35;;
21432;SDS011;18592;49.708;10.900;2024-03-06T11:23:11;12.75;;;7.53;;
21432;SDS011;18592;49.708;10.900;2024-03-06T11:28:02;15.80;;;10.70;;
21432;SDS011;18592;49.708;10.900;2024-03-06T11:30:05;15.18;;;10.20;;
21432;SDS011;18592;49.708;10.900;2024-03-06T11:32:29;14.23;;;9.80;;
21432;SDS011;18592;49.708;10.900;2024-03-06T11:34:29;14.05;;;9.45;;
21432;SDS011;18592;49.708;10.900;2024-03-06T11:36:30;12.77;;;8.38;;
21432;SDS011;18592;49.708;10.900;2024-03-06T11:38:31;14.02;;;8.55;;
21432;SDS011;18592;49.708;10.900;2024-03-06T11:40:31;11.43;;;7.57;;
21432;SDS011;18592;49.708;10.900;2024-03-06T11:42:34;10.40;;;6.85;;
21432;SDS011;18592;49.708;10.900;2024-03-06T11:44:51;11.88;;;7.95;;
21432;SDS011;18592;49.708;10.900;2024-03-06T11:48:55;13.63;;;9.68;;
21432;SDS011;18592;49.708;10.900;2024-03-06T11:50:56;13.80;;;10.30;;
21432;SDS011;18592;49.708;10.900;2024-03-06T11:52:59;15.32;;;10.73;;
21432;SDS011;18592;49.708;10.900;2024-03-06T11:54:59;12.30;;;8.90;;
21432;SDS011;18592;49.708;10.900;2024-03-06T11:57:14;11.70;;;8.07;;
21432;SDS011;18592;49.708;10.900;2024-03-06T11:59:16;10.10;;;6.35;;
21432;SDS011;18592;49.708;10.900;2024-03-06T12:01:24;9.15;;;5.95;;
21432;SDS011;18592;49.708;10.900;2024-03-06T12:03:25;13.27;;;7.43;;
21432;SDS011;18592;49.708;10.900;2024-03-06T12:05:25;11.60;;;7.72;;
21432;SDS011;18592;49.708;10.900;2024-03-06T12:07:51;11.02;;;6.78;;
21432;SDS011;18592;49.708;10.900;2024-03-06T12:09:52;11.70;;;6.82;;
21432;SDS011;18592;49.708;10.900;2024-03-06T12:12:07;8.88;;;6.15;;
21432;SDS011;18592;49.708;10.900;2024-03-06T12:14:18;8.30;;;5.40;;
21432;SDS011;18592;49.708;10.900;2024-03-06T12:16:20;9.65;;;6.78;;
21432;SDS011;18592;49.708;10.900;2024-03-06T12:18:26;9.75;;;6.93;;
21432;SDS011;18592;49.708;10.900;2024-03-06T12:20:27;11.67;;;8.00;;
21432;SDS011;18592;49.708;10.900;2024-03-06T12:22:50;14.13;;;9.75;;
21432;SDS011;18592;49.708;10.900;2024-03-06T12:24:58;12.45;;;9.05;;
21432;SDS011;18592;49.708;10.900;2024-03-06T12:27:10;13.68;;;10.15;;
21432;SDS011;18592;49.708;10.900;2024-03-06T12:29:28;15.35;;;10.60;;
21432;SDS011;18592;49.708;10.900;2024-03-06T12:31:33;14.07;;;10.80;;
21432;SDS011;18592;49.708;10.900;2024-03-06T12:33:42;14.30;;;10.15;;
21432;SDS011;18592;49.708;10.900;2024-03-06T12:35:42;14.43;;;10.68;;
21432;SDS011;18592;49.708;10.900;2024-03-06T12:37:43;13.95;;;9.77;;
21432;SDS011;18592;49.708;10.900;2024-03-06T12:39:44;13.15;;;9.73;;
21432;SDS011;18592;49.708;10.900;2024-03-06T12:41:44;14.35;;;10.25;;
21432;SDS011;18592;49.708;10.900;2024-03-06T12:43:45;14.48;;;10.38;;
21432;SDS011;18592;49.708;10.900;2024-03-06T12:45:45;13.52;;;10.40;;
21432;SDS011;18592;49.708;10.900;2024-03-06T12:47:46;14.43;;;10.20;;
21432;SDS011;18592;49.708;10.900;2024-03-06T12:49:50;14.13;;;10.38;;
21432;SDS011;18592;49.708;10.900;2024-03-06T12:52:04;14.15;;;9.93;;
21432;SDS011;18592;49.708;10.900;2024-03-06T12:54:20;12.38;;;9.02;;
21432;SDS011;18592;49.708;10.900;2024-03-06T12:56:20;14.57;;;9.65;;
21432;SDS011;18592;49.708;10.900;2024-03-06T12:58:21;13.57;;;9.35;;
21432;SDS011;18592;49.708;10.900;2024-03-06T13:00:21;15.40;;;10.60;;
21432;SDS011;18592;49.708;10.900;2024-03-06T13:02:23;15.80;;;10.38;;
21432;SDS011;18592;49.708;10.900;2024-03-06T13:04:24;16.80;;;11.10;;
21432;SDS011;18592;49.708;10.900;2024-03-06T13:06:26;16.88;;;11.32;;
21432;SDS011;18592;49.708;10.900;2024-03-06T13:08:28;16.35;;;10.88;;
21432;SDS011;18592;49.708;10.900;2024-03-06T13:10:30;14.60;;;9.82;;
21432;SDS011;18592;49.708;10.900;2024-03-06T13:12:44;13.93;;;9.73;;
21432;SDS011;18592;49.708;10.900;2024-03-06T13:14:45;15.50;;;10.73;;
21432;SDS011;18592;49.708;10.900;2024-03-06T13:16:45;14.82;;;9.73;;
21432;SDS011;18592;49.708;10.900;2024-03-06T13:18:45;13.27;;;8.63;;
21432;SDS011;18592;49.708;10.900;2024-03-06T13:20:46;13.10;;;9.27;;
21432;SDS011;18592;49.708;10.900;2024-03-06T13:22:46;12.38;;;8.52;;
21432;SDS011;18592;49.708;10.900;2024-03-06T13:24:47;12.20;;;9.25;;
21432;SDS011;18592;49.708;10.900;2024-03-06T13:26:47;13.20;;;9.25;;
21432;SDS011;18592;49.708;10.900;2024-03-06T13:28:47;13.95;;;9.30;;
21432;SDS011;18592;49.708;10.900;2024-03-06T13:30:48;14.18;;;9.25;;
21432;SDS011;18592;49.708;10.900;2024-03-06T13:32:50;12.98;;;9.23;;
21432;SDS011;18592;49.708;10.900;2024-03-06T13:34:51;12.18;;;8.38;;
21432;SDS011;18592;49.708;10.900;2024-03-06T13:37:06;14.07;;;9.60;;
21432;SDS011;18592;49.708;10.900;2024-03-06T13:39:10;11.88;;;8.32;;
21432;SDS011;18592;49.708;10.900;2024-03-06T13:41:25;14.68;;;8.95;;
21432;SDS011;18592;49.708;10.900;2024-03-06T13:43:26;12.38;;;8.95;;
21432;SDS011;18592;49.708;10.900;2024-03-06T13:45:26;10.95;;;7.40;;